Time;durP1;ratioP1;P1;durP2;ratioP2;P2;SDS_P1;SDS_P2;PMS_P1;PMS_P2;Temp;Humidity;BMP_temperature;BMP_pressure;BME280_temperature;BME280_humidity;BME280_pressure;Samples;Min_cycle;Max_cycle;Signal;HPM_P1;HPM_P2
2024/01/18 05:22:33;;;;;;;5.90;3.85;;;;;;;0.54;100.00;97719.19;5089377;28;20328;-36
2024/01/18 05:25:00;;;;;;;8.93;4.63;;;;;;;0.77;100.00;97717.41;5089199;28;20029;-38
2024/01/18 05:27:32;;;;;;;8.15;4.90;;;;;;;0.67;100.00;97724.69;5089101;28;20082;-37
2024/01/18 05:29:58;;;;;;;8.23;4.80;;;;;;;0.60;100.00;97712.44;5089258;28;20040;-35
2024/01/18 05:32:24;;;;;;;7.18;5.13;;;;;;;0.74;100.00;97706.47;5089271;28;20028;-38
2024/01/18 05:34:50;;;;;;;8.27;5.20;;;;;;;0.60;100.00;97692.28;5087844;28;20046;-35
2024/01/18 05:37:16;;;;;;;7.65;4.97;;;;;;;0.78;100.00;97690.22;5088820;28;20032;-38
2024/01/18 05:39:42;;;;;;;6.32;4.38;;;;;;;0.93;100.00;97695.53;5089253;28;20032;-38
2024/01/18 05:42:07;;;;;;;6.82;5.00;;;;;;;0.74;100.00;97686.31;5087658;28;20491;-38
2024/01/18 05:44:33;;;;;;;6.63;4.47;;;;;;;0.61;100.00;97683.44;5089059;28;20101;-34
2024/01/18 05:46:59;;;;;;;6.60;4.57;;;;;;;0.72;100.00;97688.31;5088722;28;20042;-34
2024/01/18 05:49:25;;;;;;;6.78;4.72;;;;;;;0.56;100.00;97677.91;5088881;28;20039;-38
2024/01/18 05:51:50;;;;;;;6.05;4.47;;;;;;;0.73;100.00;97674.22;5088842;28;20054;-37
2024/01/18 05:54:16;;;;;;;7.18;4.60;;;;;;;0.77;100.00;97691.19;5089044;28;20044;-35
2024/01/18 05:56:42;;;;;;;6.38;4.43;;;;;;;0.86;100.00;97694.59;5088731;28;20044;-38
2024/01/18 05:59:07;;;;;;;6.15;4.18;;;;;;;0.84;100.00;97701.81;5088659;28;20042;-35
2024/01/18 06:01:33;;;;;;;5.45;3.90;;;;;;;0.71;100.00;97697.13;5088691;28;20063;-37
2024/01/18 06:03:58;;;;;;;8.15;5.22;;;;;;;0.78;100.00;97684.16;5088601;28;20032;-36
2024/01/18 06:06:24;;;;;;;7.70;4.95;;;;;;;0.88;100.00;97682.13;5088357;28;20040;-41
2024/01/18 06:08:49;;;;;;;5.60;4.38;;;;;;;0.65;100.00;97682.13;5088558;28;20036;-38
2024/01/18 06:11:15;;;;;;;5.93;4.25;;;;;;;0.61;100.00;97686.06;5088552;28;20040;-35
2024/01/18 06:13:40;;;;;;;6.47;5.15;;;;;;;0.72;100.00;97704.03;5088512;28;20028;-37
2024/01/18 06:16:10;;;;;;;6.22;4.97;;;;;;;0.78;100.00;97705.13;5088423;28;20400;-39
2024/01/18 06:18:36;;;;;;;7.05;5.03;;;;;;;0.92;100.00;97704.41;5088150;28;20070;-35
2024/01/18 06:21:09;;;;;;;7.30;4.90;;;;;;;0.92;100.00;97698.34;5088139;28;20072;-37
2024/01/18 06:23:35;;;;;;;6.93;4.57;;;;;;;0.63;100.00;97686.69;5088358;28;20458;-38
2024/01/18 06:26:00;;;;;;;6.63;4.88;;;;;;;0.67;100.00;97697.66;5088102;28;20038;-38
2024/01/18 06:28:26;;;;;;;9.27;5.75;;;;;;;0.91;100.00;97712.41;5086610;28;20032;-34
2024/01/18 06:30:51;;;;;;;8.45;5.40;;;;;;;0.76;100.00;97700.06;5088110;28;20067;-35
2024/01/18 06:33:17;;;;;;;8.30;5.65;;;;;;;0.70;100.00;97690.25;5076726;28;20047;-36
2024/01/18 06:35:42;;;;;;;8.02;5.45;;;;;;;0.70;100.00;97687.63;5074418;28;20028;-37
2024/01/18 06:38:07;;;;;;;9.15;5.63;;;;;;;0.62;100.00;97690.31;5074319;28;20040;-37
2024/01/18 06:40:33;;;;;;;6.95;5.60;;;;;;;0.88;100.00;97697.84;5073126;28;20094;-36
2024/01/18 06:42:58;;;;;;;8.50;5.70;;;;;;;0.65;100.00;97689.13;5074425;28;20064;-38
2024/01/18 06:45:23;;;;;;;8.65;5.72;;;;;;;0.62;100.00;97695.56;5074384;28;20117;-35
2024/01/18 06:47:49;;;;;;;10.48;6.55;;;;;;;0.91;100.00;97707.97;5073974;28;20056;-39
2024/01/18 06:50:16;;;;;;;9.57;6.43;;;;;;;0.60;100.00;97707.19;5074298;28;20495;-39
2024/01/18 06:52:41;;;;;;;8.65;5.75;;;;;;;0.69;100.00;97706.16;5074268;28;20032;-38
2024/01/18 06:55:08;;;;;;;7.80;5.75;;;;;;;0.63;100.00;97723.38;5074261;28;20499;-36
2024/01/18 06:57:34;;;;;;;8.52;5.22;;;;;;;0.52;100.00;97727.22;5074018;28;20071;-37
2024/01/18 06:59:59;;;;;;;7.43;4.43;;;;;;;0.52;100.00;97721.13;5073999;28;20463;-35
2024/01/18 07:02:25;;;;;;;5.38;4.18;;;;;;;0.40;100.00;97710.25;5074106;28;20033;-39
2024/01/18 07:04:50;;;;;;;6.45;4.20;;;;;;;0.65;100.00;97723.19;5074024;28;20504;-39
2024/01/18 07:07:16;;;;;;;5.35;3.80;;;;;;;0.51;100.00;97711.66;5072491;28;20035;-37
2024/01/18 07:09:41;;;;;;;5.70;4.30;;;;;;;0.64;100.00;97725.00;5073820;28;20376;-38
2024/01/18 07:12:07;;;;;;;5.50;4.38;;;;;;;0.52;100.00;97723.75;5073811;28;20507;-36
2024/01/18 07:14:32;;;;;;;6.43;3.80;;;;;;;0.56;100.00;97727.69;5073838;28;20029;-36
2024/01/18 07:16:57;;;;;;;6.30;4.43;;;;;;;0.38;100.00;97721.84;5073507;28;20032;-37
2024/01/18 07:19:23;;;;;;;8.40;4.82;;;;;;;0.37;100.00;97718.41;5073465;28;20514;-40
2024/01/18 07:21:48;;;;;;;5.25;4.00;;;;;;;0.56;100.00;97737.34;5073427;28;20438;-36
2024/01/18 07:24:13;;;;;;;6.95;4.47;;;;;;;0.62;100.00;97736.66;5073549;28;20059;-36
2024/01/18 07:26:39;;;;;;;6.60;4.38;;;;;;;0.58;100.00;97737.97;5073058;28;20115;-39
2024/01/18 07:29:04;;;;;;;4.55;3.28;;;;;;;0.42;100.00;97738.88;5072656;28;20480;-36
2024/01/18 07:31:30;;;;;;;5.82;3.83;;;;;;;0.47;100.00;97739.19;5073318;28;20029;-37
2024/01/18 07:33:55;;;;;;;4.28;3.10;;;;;;;0.32;100.00;97733.00;5073328;28;20488;-37
2024/01/18 07:36:21;;;;;;;3.47;3.17;;;;;;;0.42;100.00;97742.31;5073180;28;20576;-36
2024/01/18 07:38:46;;;;;;;2.72;1.95;;;;;;;0.26;100.00;97748.44;5072975;28;20063;-36
2024/01/18 07:41:12;;;;;;;4.10;3.10;;;;;;;0.25;100.00;97741.53;5073068;28;20063;-35
2024/01/18 07:43:39;;;;;;;4.80;3.47;;;;;;;0.30;100.00;97743.66;5072710;28;20040;-37
2024/01/18 07:46:04;;;;;;;5.78;3.30;;;;;;;0.39;100.00;97739.19;5072690;28;20127;-37
2024/01/18 07:48:30;;;;;;;4.68;3.55;;;;;;;0.52;100.00;97734.22;5072779;28;20127;-36
2024/01/18 07:50:55;;;;;;;4.47;3.33;;;;;;;0.36;100.00;97745.59;5072767;28;20033;-39
2024/01/18 07:53:21;;;;;;;5.80;3.75;;;;;;;0.43;100.00;97745.75;5073101;28;20407;-38
2024/01/18 07:55:46;;;;;;;2.28;1.98;;;;;;;0.18;100.00;97752.84;5072541;28;20036;-38
2024/01/18 07:58:13;;;;;;;4.32;3.28;;;;;;;0.36;100.00;97750.84;5062713;28;20032;-39
2024/01/18 08:00:39;;;;;;;5.40;3.77;;;;;;;0.36;100.00;97766.56;5063167;28;20033;-35
2024/01/18 08:03:04;;;;;;;4.00;3.60;;;;;;;0.33;100.00;97766.09;5061354;28;20041;-34
2024/01/18 08:05:30;;;;;;;5.30;3.90;;;;;;;0.68;100.00;97767.41;5062977;28;20094;-36
2024/01/18 08:07:55;;;;;;;4.30;3.60;;;;;;;0.39;100.00;97775.84;5062309;28;20037;-35
2024/01/18 08:10:20;;;;;;;4.78;3.30;;;;;;;0.45;100.00;97781.25;5061529;28;20412;-37
2024/01/18 08:12:47;;;;;;;5.75;3.90;;;;;;;0.49;100.00;97784.34;5063319;28;20093;-38
2024/01/18 08:15:13;;;;;;;5.43;3.85;;;;;;;0.53;100.00;97786.47;5062108;28;20056;-34
2024/01/18 08:17:38;;;;;;;3.22;2.10;;;;;;;0.35;100.00;97809.44;5061316;28;20504;-37
2024/01/18 08:20:13;;;;;;;3.95;3.08;;;;;;;0.20;100.00;97806.69;5063269;28;20052;-38
2024/01/18 08:22:39;;;;;;;6.22;4.00;;;;;;;0.35;100.00;97821.72;5062901;28;20037;-35
2024/01/18 08:25:06;;;;;;;5.10;3.78;;;;;;;0.34;100.00;97826.16;5061026;28;20182;-35
2024/01/18 08:27:32;;;;;;;5.57;3.63;;;;;;;0.44;100.00;97834.63;5060880;28;20115;-39
2024/01/18 08:29:58;;;;;;;4.80;3.17;;;;;;;0.32;100.00;97832.50;5062289;28;20108;-35
2024/01/18 08:32:28;;;;;;;3.90;2.45;;;;;;;0.46;100.00;97831.84;5064547;28;20029;-36
2024/01/18 08:34:54;;;;;;;5.97;4.07;;;;;;;0.50;100.00;97835.75;5071689;28;20190;-36
2024/01/18 08:37:19;;;;;;;7.93;4.57;;;;;;;0.44;100.00;97849.53;5070477;28;20107;-35
2024/01/18 08:39:46;;;;;;;6.97;4.30;;;;;;;0.34;100.00;97843.66;5072229;28;20450;-36
2024/01/18 08:42:11;;;;;;;3.75;3.42;;;;;;;0.24;100.00;97844.66;5072163;28;20036;-37
2024/01/18 08:44:37;;;;;;;3.55;2.75;;;;;;;0.18;100.00;97853.16;5072107;28;20044;-36
2024/01/18 08:47:02;;;;;;;5.25;3.90;;;;;;;0.46;100.00;97863.28;5071872;28;20552;-40
2024/01/18 08:49:28;;;;;;;3.33;2.47;;;;;;;0.05;100.00;97862.50;5072046;28;20036;-34
2024/01/18 08:51:54;;;;;;;3.70;3.03;;;;;;;0.04;100.00;97868.72;5072201;28;20561;-36
2024/01/18 08:54:20;;;;;;;5.07;3.13;;;;;;;0.19;100.00;97870.50;5072122;28;20123;-36
2024/01/18 08:56:47;;;;;;;4.43;3.28;;;;;;;0.17;100.00;97875.09;5071419;28;20024;-35
2024/01/18 08:59:12;;;;;;;4.70;3.38;;;;;;;0.11;100.00;97875.75;5071840;28;20041;-37
2024/01/18 09:01:38;;;;;;;5.30;3.28;;;;;;;0.05;100.00;97878.22;5071919;28;20472;-34
2024/01/18 09:04:03;;;;;;;4.20;2.92;;;;;;;0.11;100.00;97888.84;5072064;28;20123;-35
2024/01/18 09:06:29;;;;;;;3.22;2.58;;;;;;;0.09;100.00;97884.75;5071633;28;20021;-38
2024/01/18 09:08:54;;;;;;;4.00;2.95;;;;;;;0.09;100.00;97893.44;5071872;28;20033;-37
2024/01/18 09:11:20;;;;;;;4.18;3.15;;;;;;;0.05;100.00;97899.97;5071919;28;20100;-36
2024/01/18 09:13:45;;;;;;;4.65;3.38;;;;;;;0.03;100.00;97904.56;5071862;28;20047;-38
2024/01/18 09:16:16;;;;;;;3.58;2.63;;;;;;;0.02;100.00;97904.72;5071714;28;20093;-37
2024/01/18 09:18:42;;;;;;;3.47;2.80;;;;;;;0.06;100.00;97922.53;5071635;28;20041;-34
2024/01/18 09:21:07;;;;;;;6.10;3.85;;;;;;;0.15;100.00;97941.72;5071650;28;20036;-37
2024/01/18 09:23:33;;;;;;;5.97;4.00;;;;;;;0.20;100.00;97955.13;5071742;28;20519;-38
2024/01/18 09:25:58;;;;;;;6.10;4.22;;;;;;;0.09;100.00;97955.44;5071661;28;20036;-36
2024/01/18 09:28:23;;;;;;;5.72;3.70;;;;;;;0.18;100.00;97988.50;5071455;28;20064;-38
2024/01/18 09:30:49;;;;;;;3.30;2.47;;;;;;;0.03;100.00;97995.34;5071702;28;20381;-39
2024/01/18 09:33:15;;;;;;;3.65;3.22;;;;;;;-0.13;100.00;97999.59;5071636;28;20040;-37
2024/01/18 09:35:40;;;;;;;3.90;2.97;;;;;;;0.14;100.00;98016.81;5069702;28;20048;-37
2024/01/18 09:38:08;;;;;;;5.78;4.10;;;;;;;0.13;100.00;98024.81;5053960;28;20041;-37
2024/01/18 09:40:33;;;;;;;4.07;3.40;;;;;;;0.13;100.00;98035.28;5051624;28;20044;-38
2024/01/18 09:43:06;;;;;;;3.30;2.50;;;;;;;0.07;100.00;98034.16;5071048;28;20056;-37
2024/01/18 09:45:35;;;;;;;3.78;3.03;;;;;;;0.03;100.00;98038.06;5071691;28;20497;-35
2024/01/18 09:48:03;;;;;;;3.78;2.85;;;;;;;-0.05;100.00;98046.72;5071296;28;20048;-34
2024/01/18 09:50:31;;;;;;;2.47;2.03;;;;;;;-0.09;100.00;98032.31;5071395;28;20503;-35
2024/01/18 09:52:57;;;;;;;2.85;2.20;;;;;;;-0.17;100.00;98036.69;5071394;28;20031;-39
2024/01/18 09:55:23;;;;;;;3.08;2.38;;;;;;;-0.14;100.00;98042.41;5071573;28;20112;-36
2024/01/18 09:57:55;;;;;;;2.00;1.63;;;;;;;-0.38;100.00;98053.63;5070971;28;20710;-36
2024/01/18 10:00:24;;;;;;;4.30;2.97;;;;;;;-0.30;100.00;98060.69;5071388;28;20119;-36
2024/01/18 10:02:52;;;;;;;3.75;2.78;;;;;;;-0.25;100.00;98073.31;5071406;28;20064;-39
2024/01/18 10:05:18;;;;;;;5.22;3.20;;;;;;;-0.23;100.00;98063.50;5071472;28;20048;-38
2024/01/18 10:07:44;;;;;;;2.30;1.90;;;;;;;-0.62;100.00;98071.81;5072122;28;20024;-38
2024/01/18 10:10:12;;;;;;;3.50;2.95;;;;;;;-0.40;100.00;98084.34;5075145;28;20043;-35
2024/01/18 10:12:41;;;;;;;4.57;3.20;;;;;;;-0.28;100.00;98095.34;5074936;28;20102;-35
2024/01/18 10:15:07;;;;;;;4.55;3.03;;;;;;;-0.03;100.00;98094.47;5074816;28;20500;-38
2024/01/18 10:17:33;;;;;;;2.83;2.53;;;;;;;-0.05;100.00;98098.25;5074727;28;20055;-39
2024/01/18 10:20:00;;;;;;;2.40;2.17;;;;;;;0.04;100.00;98092.06;5074819;28;20502;-35
2024/01/18 10:22:26;;;;;;;4.55;2.35;;;;;;;0.34;100.00;98092.47;5074691;28;20083;-35
2024/01/18 10:24:52;;;;;;;3.58;2.60;;;;;;;0.07;100.00;98094.38;5074795;28;20064;-33
2024/01/18 10:27:22;;;;;;;1.85;1.70;;;;;;;-0.33;100.00;98102.84;5074508;28;20090;-33
2024/01/18 10:29:49;;;;;;;3.95;2.92;;;;;;;-0.27;100.00;98105.66;5074680;28;20036;-33
2024/01/18 10:32:16;;;;;;;2.63;2.20;;;;;;;-0.40;100.00;98125.38;5074811;28;20480;-34
2024/01/18 10:34:42;;;;;;;2.90;2.25;;;;;;;-0.50;100.00;98125.50;5074711;28;20060;-34
2024/01/18 10:37:12;;;;;;;4.18;3.38;;;;;;;-0.27;100.00;98129.22;5074366;28;20589;-33
2024/01/18 10:39:39;;;;;;;5.03;3.20;;;;;;;-0.26;100.00;98132.69;5074461;28;20051;-34
2024/01/18 10:42:07;;;;;;;2.97;2.67;;;;;;;-0.09;100.00;98138.78;5074608;28;20037;-33
2024/01/18 10:44:41;;;;;;;5.82;3.63;;;;;;;0.10;100.00;98149.03;5074603;28;20346;-33
2024/01/18 10:47:11;;;;;;;3.03;2.60;;;;;;;-0.03;100.00;98153.88;5074204;28;20040;-33
2024/01/18 10:49:37;;;;;;;3.83;3.00;;;;;;;-0.23;100.00;98155.09;5074228;28;20037;-33
2024/01/18 10:52:03;;;;;;;4.78;2.70;;;;;;;-0.36;100.00;98165.97;5074411;28;20090;-35
2024/01/18 10:54:30;;;;;;;5.07;3.33;;;;;;;0.06;100.00;98178.28;5074463;28;20032;-34
2024/01/18 10:56:57;;;;;;;3.72;3.03;;;;;;;-0.01;100.00;98184.13;5074113;28;20075;-34
2024/01/18 10:59:22;;;;;;;4.05;2.85;;;;;;;-0.12;100.00;98192.28;5074332;28;20037;-34
2024/01/18 11:01:48;;;;;;;4.97;3.03;;;;;;;-0.12;100.00;98201.94;5074231;28;20047;-34
2024/01/18 11:04:14;;;;;;;3.45;2.33;;;;;;;-0.39;100.00;98208.13;5074313;28;20036;-33
2024/01/18 11:06:41;;;;;;;3.50;2.60;;;;;;;-0.28;100.00;98208.69;5073873;28;20058;-32
2024/01/18 11:09:08;;;;;;;3.17;2.17;;;;;;;-0.64;100.00;98212.38;5074516;28;20492;-34
2024/01/18 11:11:34;;;;;;;4.15;2.90;;;;;;;-0.31;100.00;98216.84;5074136;28;20419;-32
2024/01/18 11:14:00;;;;;;;3.92;3.08;;;;;;;-0.27;100.00;98227.81;5073904;28;20040;-34
2024/01/18 11:16:26;;;;;;;4.78;3.55;;;;;;;-0.09;100.00;98233.00;5073532;28;20043;-33
2024/01/18 11:18:58;;;;;;;4.82;2.88;;;;;;;0.01;100.00;98238.16;5073759;28;20040;-33
2024/01/18 11:21:40;;;;;;;3.85;2.88;;;;;;;0.21;100.00;98239.56;5073653;28;20098;-33
2024/01/18 11:24:14;;;;;;;4.47;3.17;;;;;;;0.01;100.00;98252.06;5073843;28;20040;-34
2024/01/18 11:26:39;;;;;;;3.03;2.47;;;;;;;-0.22;100.00;98248.31;5073275;28;20040;-33
2024/01/18 11:29:26;;;;;;;4.07;2.38;;;;;;;-0.24;100.00;98264.16;5073575;28;20094;-34
2024/01/18 11:31:52;;;;;;;6.25;4.10;;;;;;;0.11;100.00;98257.19;5072553;28;20029;-34
2024/01/18 11:34:29;;;;;;;4.72;3.22;;;;;;;-0.08;100.00;98266.88;5071228;28;20503;-35
2024/01/18 11:37:11;;;;;;;4.13;3.50;;;;;;;0.14;100.00;98281.28;5073083;28;20480;-36
2024/01/18 11:39:48;;;;;;;3.42;2.78;;;;;;;-0.24;100.00;98279.88;5073064;28;20044;-35
2024/01/18 11:42:20;;;;;;;4.78;3.22;;;;;;;0.06;100.00;98281.19;5073277;28;20036;-35
2024/01/18 11:45:04;;;;;;;5.00;3.47;;;;;;;0.06;100.00;98281.19;5073282;28;20028;-35
2024/01/18 11:47:31;;;;;;;5.70;3.22;;;;;;;0.89;100.00;98293.72;5073046;28;20089;-36
2024/01/18 11:49:58;;;;;;;3.97;2.92;;;;;;;0.57;100.00;98297.84;5073263;28;20665;-36
2024/01/18 11:52:25;;;;;;;4.63;3.22;;;;;;;0.45;100.00;98309.56;5073108;28;20033;-36
2024/01/18 11:54:53;;;;;;;4.72;3.58;;;;;;;0.71;100.00;98312.97;5073450;28;20660;-36
2024/01/18 11:57:19;;;;;;;;;;;;;;;0.33;100.00;98323.94;5073293;28;20424;-36
2024/01/18 11:59:48;;;;;;;4.53;3.30;;;;;;;0.73;100.00;98326.75;5072959;28;19923;-36
2024/01/18 12:02:14;;;;;;;6.03;3.25;;;;;;;0.84;100.00;98327.44;5072905;28;20093;-35
2024/01/18 12:04:39;;;;;;;4.40;3.58;;;;;;;0.74;100.00;98336.25;5072739;28;20111;-35
2024/01/18 12:07:07;;;;;;;4.30;3.13;;;;;;;0.66;100.00;98332.78;5072429;28;20036;-36
2024/01/18 12:09:33;;;;;;;3.95;3.20;;;;;;;0.86;100.00;98341.22;5072835;28;20103;-36
2024/01/18 12:12:00;;;;;;;3.65;3.13;;;;;;;0.97;100.00;98351.41;5072812;28;20440;-36
2024/01/18 12:14:26;;;;;;;4.03;2.97;;;;;;;0.96;100.00;98355.03;5072763;28;20403;-36
2024/01/18 12:16:52;;;;;;;4.40;3.38;;;;;;;1.24;100.00;98364.31;5072340;28;20041;-36
2024/01/18 12:19:31;;;;;;;4.00;3.45;;;;;;;0.40;100.00;98377.34;5072650;28;20044;-36
2024/01/18 12:21:57;;;;;;;3.35;2.50;;;;;;;0.67;100.00;98374.56;5059188;28;20446;-36
2024/01/18 12:24:23;;;;;;;5.63;3.53;;;;;;;0.94;100.00;98380.59;5062041;28;20123;-36
2024/01/18 12:26:48;;;;;;;4.25;3.47;;;;;;;0.57;100.00;98386.94;5061287;28;20032;-36
2024/01/18 12:29:14;;;;;;;3.75;2.85;;;;;;;0.94;100.00;98391.06;5062977;28;20039;-35
2024/01/18 12:31:40;;;;;;;3.60;2.72;;;;;;;0.37;100.00;98396.78;5061107;28;20472;-36
2024/01/18 12:34:07;;;;;;;4.53;3.70;;;;;;;0.72;100.00;98411.63;5061782;28;20102;-36
2024/01/18 12:36:33;;;;;;;4.40;3.30;;;;;;;0.78;100.00;98426.72;5062835;28;20036;-37
2024/01/18 12:38:58;;;;;;;4.30;3.30;;;;;;;0.88;100.00;98433.66;5061237;28;20047;-36
2024/01/18 12:41:24;;;;;;;4.00;3.10;;;;;;;0.51;100.00;98422.44;5063372;28;20128;-35
2024/01/18 12:43:49;;;;;;;4.15;3.45;;;;;;;0.65;100.00;98426.31;5061185;28;20051;-35
2024/01/18 12:46:14;;;;;;;4.50;3.72;;;;;;;0.63;100.00;98448.41;5062617;28;20120;-35
2024/01/18 12:48:40;;;;;;;5.38;2.85;;;;;;;0.46;100.00;98457.94;5043689;28;20036;-35
2024/01/18 12:51:06;;;;;;;4.28;3.83;;;;;;;0.84;100.00;98450.66;5061618;28;20028;-36
2024/01/18 12:53:31;;;;;;;5.90;4.05;;;;;;;1.12;100.00;98465.25;5062796;28;20072;-36
2024/01/18 12:55:56;;;;;;;3.75;3.08;;;;;;;0.75;100.00;98466.34;5062610;28;20059;-36
2024/01/18 12:58:22;;;;;;;5.30;3.72;;;;;;;0.46;100.00;98476.28;5063229;28;20535;-35
2024/01/18 13:00:51;;;;;;;4.72;3.45;;;;;;;0.81;100.00;98472.75;5061926;28;20036;-36
2024/01/18 13:03:16;;;;;;;4.03;3.63;;;;;;;1.08;100.00;98482.25;5062691;28;20043;-36
2024/01/18 13:05:47;;;;;;;5.45;3.83;;;;;;;0.94;100.00;98488.91;5060741;28;20055;-36
2024/01/18 13:08:14;;;;;;;5.13;3.38;;;;;;;0.66;100.00;98500.50;5060894;28;20079;-36
2024/01/18 13:10:40;;;;;;;4.72;3.38;;;;;;;1.11;100.00;98500.31;5062651;28;20383;-36
2024/01/18 13:13:08;;;;;;;4.03;3.33;;;;;;;0.90;100.00;98511.16;5061244;28;20029;-36
2024/01/18 13:15:34;;;;;;;4.22;3.42;;;;;;;0.87;100.00;98515.91;5060742;28;20075;-35
2024/01/18 13:18:06;;;;;;;4.57;3.00;;;;;;;0.81;100.00;98515.53;5062308;28;20109;-36
2024/01/18 13:20:32;;;;;;;5.05;3.63;;;;;;;0.71;100.00;98521.81;5051742;28;20075;-36
2024/01/18 13:22:57;;;;;;;3.90;3.50;;;;;;;0.65;100.00;98530.28;5051796;28;20025;-36
2024/01/18 13:25:23;;;;;;;4.20;2.90;;;;;;;0.57;100.00;98538.91;5051969;28;20064;-35
2024/01/18 13:27:48;;;;;;;4.80;3.20;;;;;;;0.72;100.00;98544.47;5051585;28;20043;-36
2024/01/18 13:30:14;;;;;;;4.18;3.03;;;;;;;0.79;100.00;98554.19;5051759;28;20420;-36
2024/01/18 13:32:39;;;;;;;4.25;3.00;;;;;;;0.76;100.00;98553.66;5051727;28;20393;-35
2024/01/18 13:35:05;;;;;;;4.60;3.15;;;;;;;0.51;100.00;98565.72;5051787;28;20094;-35
2024/01/18 13:37:30;;;;;;;4.05;3.00;;;;;;;0.38;100.00;98570.50;5051621;28;20396;-35
2024/01/18 13:39:56;;;;;;;6.25;3.25;;;;;;;0.55;100.00;98572.31;5051538;28;20044;-35
2024/01/18 13:42:21;;;;;;;4.93;3.55;;;;;;;0.53;100.00;98582.97;5052152;28;20033;-35
2024/01/18 13:44:46;;;;;;;4.50;2.95;;;;;;;0.51;100.00;98584.88;5055501;28;20550;-35
2024/01/18 13:47:12;;;;;;;5.32;2.38;;;;;;;0.35;100.00;98589.97;5055587;28;20120;-35
2024/01/18 13:49:38;;;;;;;3.50;2.65;;;;;;;0.20;100.00;98601.94;5055559;28;20083;-35
2024/01/18 13:52:04;;;;;;;3.40;2.63;;;;;;;0.34;100.00;98608.47;5055549;28;20554;-35
2024/01/18 13:54:31;;;;;;;3.78;2.60;;;;;;;0.41;100.00;98623.44;5055334;28;20041;-35
2024/01/18 13:56:57;;;;;;;2.80;2.20;;;;;;;0.55;100.00;98635.22;5055269;28;20044;-35
2024/01/18 13:59:22;;;;;;;5.30;3.30;;;;;;;0.78;100.00;98644.28;5056086;28;20048;-35
2024/01/18 14:01:48;;;;;;;2.55;2.00;;;;;;;0.33;100.00;98646.13;5055486;28;20094;-35
2024/01/18 14:04:14;;;;;;;4.57;2.50;;;;;;;0.44;100.00;98649.31;5054284;28;20069;-35
2024/01/18 14:06:40;;;;;;;4.63;3.03;;;;;;;0.71;100.00;98656.31;5055041;28;20064;-35
2024/01/18 14:09:07;;;;;;;5.95;3.28;;;;;;;0.67;100.00;98675.13;5055228;28;20060;-35
2024/01/18 14:11:33;;;;;;;6.00;3.22;;;;;;;0.74;100.00;98686.66;5055272;28;20117;-35
2024/01/18 14:13:59;;;;;;;4.80;2.70;;;;;;;0.54;100.00;98686.78;5055066;28;20115;-35
2024/01/18 14:16:24;;;;;;;5.18;3.28;;;;;;;0.89;100.00;98705.31;5055389;28;20063;-34
2024/01/18 14:18:50;;;;;;;4.60;3.35;;;;;;;0.91;100.00;98716.47;5055494;28;20489;-36
2024/01/18 14:21:16;;;;;;;3.25;2.58;;;;;;;0.76;100.00;98724.84;5074528;28;20033;-35
2024/01/18 14:23:42;;;;;;;4.03;2.90;;;;;;;0.88;100.00;98735.97;5074837;28;20040;-35
2024/01/18 14:26:08;;;;;;;4.72;2.97;;;;;;;0.80;100.00;98741.13;5074616;28;20090;-35
2024/01/18 14:28:33;;;;;;;3.58;2.80;;;;;;;0.57;100.00;98745.09;5072854;28;20044;-34
2024/01/18 14:31:04;;;;;;;3.45;2.60;;;;;;;0.73;100.00;98764.47;5074954;28;20073;-35
2024/01/18 14:33:31;;;;;;;4.28;2.92;;;;;;;0.68;100.00;98763.25;5055045;28;20033;-35
2024/01/18 14:35:58;;;;;;;3.22;2.35;;;;;;;0.63;100.00;98765.50;5054371;28;20021;-35
2024/01/18 14:38:24;;;;;;;3.50;2.45;;;;;;;0.53;100.00;98769.00;5056561;28;20037;-34
2024/01/18 14:40:49;;;;;;;4.80;2.92;;;;;;;0.69;100.00;98772.78;5075238;28;20043;-34
2024/01/18 14:43:16;;;;;;;3.63;2.97;;;;;;;0.75;100.00;98775.63;5059499;28;20067;-35
2024/01/18 14:45:42;;;;;;;5.97;3.22;;;;;;;0.93;100.00;98786.16;5051493;28;20557;-35
2024/01/18 14:48:12;;;;;;;4.22;2.88;;;;;;;0.88;100.00;98796.25;5073241;28;20036;-35
2024/01/18 14:50:40;;;;;;;3.90;2.45;;;;;;;0.86;100.00;98811.31;5074094;28;20111;-35
2024/01/18 14:53:06;;;;;;;2.88;2.38;;;;;;;0.79;100.00;98828.59;5073398;28;20449;-35
2024/01/18 14:55:32;;;;;;;3.97;3.20;;;;;;;1.05;100.00;98829.56;5074064;28;20036;-35
2024/01/18 14:57:57;;;;;;;5.72;2.97;;;;;;;0.95;100.00;98833.22;5073932;28;20040;-35
2024/01/18 15:00:23;;;;;;;3.40;2.60;;;;;;;1.11;100.00;98833.41;5074358;28;20039;-36
2024/01/18 15:02:48;;;;;;;3.70;2.80;;;;;;;0.92;100.00;98844.00;5074035;28;20542;-34
2024/01/18 15:05:13;;;;;;;4.05;2.90;;;;;;;1.25;100.00;98848.63;5074384;28;20033;-35
2024/01/18 15:07:39;;;;;;;4.10;2.80;;;;;;;0.72;100.00;98867.69;5073766;28;20060;-34
2024/01/18 15:10:05;;;;;;;4.63;2.80;;;;;;;1.09;100.00;98877.28;5074131;28;20052;-35
2024/01/18 15:12:31;;;;;;;4.70;3.53;;;;;;;1.35;100.00;98880.03;5074033;28;20062;-35
2024/01/18 15:14:56;;;;;;;5.82;3.42;;;;;;;1.34;100.00;98888.91;5074006;28;20032;-34
2024/01/18 15:17:21;;;;;;;5.80;3.35;;;;;;;1.51;100.00;98897.78;5073712;28;20508;-35
2024/01/18 15:19:47;;;;;;;4.72;2.80;;;;;;;1.20;100.00;98905.97;5073905;28;20090;-35
2024/01/18 15:22:12;;;;;;;4.55;2.83;;;;;;;1.18;100.00;98918.41;5073847;28;20036;-35
2024/01/18 15:24:37;;;;;;;3.70;2.53;;;;;;;1.20;100.00;98924.31;5073797;28;20450;-35
2024/01/18 15:27:03;;;;;;;4.38;3.30;;;;;;;1.09;100.00;98927.13;5073579;28;20075;-35
2024/01/18 15:29:28;;;;;;;4.10;2.95;;;;;;;1.24;100.00;98936.19;5073698;28;20040;-34
2024/01/18 15:31:54;;;;;;;5.03;3.38;;;;;;;1.30;100.00;98942.63;5073670;28;20037;-35
2024/01/18 15:34:20;;;;;;;3.97;2.92;;;;;;;1.36;100.00;98948.13;5073589;28;20464;-35
2024/01/18 15:36:46;;;;;;;6.18;3.20;;;;;;;1.23;100.00;98952.88;5073379;28;20488;-35
2024/01/18 15:39:12;;;;;;;16.17;5.53;;;;;;;1.17;100.00;98961.31;5073453;28;20047;-34
2024/01/18 15:41:44;;;;;;;4.28;2.65;;;;;;;1.14;100.00;98976.53;5073387;28;20128;-35
2024/01/18 15:44:13;;;;;;;4.78;3.00;;;;;;;1.15;100.00;98983.44;5073764;28;20068;-35
2024/01/18 15:46:39;;;;;;;4.20;2.75;;;;;;;1.17;100.00;98995.41;5073127;28;20499;-35
2024/01/18 15:49:06;;;;;;;5.32;3.30;;;;;;;0.93;100.00;99006.41;5073434;28;20041;-35
2024/01/18 15:51:32;;;;;;;3.53;2.65;;;;;;;1.02;100.00;99009.97;5073230;28;20089;-34
2024/01/18 15:53:58;;;;;;;3.90;2.75;;;;;;;0.89;100.00;99030.44;5073278;28;20036;-35
2024/01/18 15:56:24;;;;;;;3.78;2.78;;;;;;;1.06;100.00;99034.97;5073212;28;20055;-35
2024/01/18 15:58:49;;;;;;;4.22;3.08;;;;;;;1.19;100.00;99040.72;5073056;28;20085;-34
2024/01/18 16:01:17;;;;;;;4.25;2.97;;;;;;;1.05;100.00;99054.28;5073045;28;20416;-35
2024/01/18 16:03:42;;;;;;;4.88;3.15;;;;;;;1.12;100.00;99063.25;5073091;28;20484;-35
2024/01/18 16:06:08;;;;;;;4.05;3.42;;;;;;;1.04;100.00;99069.22;5072139;28;20036;-35
2024/01/18 16:08:34;;;;;;;4.50;3.00;;;;;;;0.98;100.00;99080.25;5072665;28;20093;-35
2024/01/18 16:10:59;;;;;;;6.15;3.60;;;;;;;1.05;100.00;99096.25;5071735;28;20147;-35
2024/01/18 16:13:26;;;;;;;5.13;3.20;;;;;;;1.04;100.00;99105.91;5072889;28;20040;-35
2024/01/18 16:15:54;;;;;;;6.32;3.60;;;;;;;1.05;100.00;99104.94;5072745;28;20083;-35
2024/01/18 16:18:20;;;;;;;6.57;3.95;;;;;;;1.05;100.00;99115.44;5072598;28;20043;-35
2024/01/18 16:20:46;;;;;;;5.78;4.38;;;;;;;0.84;100.00;99117.38;5072516;28;20045;-35
2024/01/18 16:23:12;;;;;;;7.13;4.93;;;;;;;0.82;100.00;99138.50;5063887;28;20050;-35
2024/01/18 16:25:37;;;;;;;7.60;4.28;;;;;;;0.64;100.00;99153.25;5060296;28;20064;-34
2024/01/18 16:28:03;;;;;;;7.28;4.88;;;;;;;0.88;100.00;99157.25;5062001;28;20056;-35
2024/01/18 16:30:29;;;;;;;7.65;4.10;;;;;;;1.14;100.00;99166.22;5062989;28;20381;-35
2024/01/18 16:32:54;;;;;;;7.53;4.30;;;;;;;0.83;100.00;99176.03;5061172;28;20045;-35
2024/01/18 16:35:19;;;;;;;8.15;4.45;;;;;;;0.84;100.00;99174.22;5062711;28;20036;-35
2024/01/18 16:37:45;;;;;;;5.00;3.95;;;;;;;0.73;100.00;99183.91;5061741;28;20059;-35
2024/01/18 16:40:11;;;;;;;6.50;3.92;;;;;;;0.69;100.00;99200.84;5060986;28;20067;-35
2024/01/18 16:42:37;;;;;;;5.72;3.80;;;;;;;0.84;100.00;99210.94;5063257;28;20475;-35
2024/01/18 16:45:03;;;;;;;4.35;3.60;;;;;;;0.88;100.00;99207.09;5061107;28;20079;-35
2024/01/18 16:47:28;;;;;;;4.75;3.53;;;;;;;0.81;100.00;99215.50;5061858;28;20048;-35
2024/01/18 16:49:54;;;;;;;7.05;3.65;;;;;;;0.96;100.00;99215.91;5062673;28;20123;-35